AirNav   Air Wisconsin Up To $57,000 Bonus
 
 683 users online  

KAXQ Clarion County Airport
Clarion, Pennsylvania, USA

GOING TO CLARION?


FAA INFORMATION EFFECTIVE 02 JANUARY 2020

Location

FAA Identifier: AXQ
Lat/Long: 41-13-29.8000N 079-26-31.8000W
41-13.496667N 079-26.530000W
41.2249444,-79.4421667
(estimated)
Elevation: 1457.5 ft. / 444.2 m (surveyed)
Variation: 10W (2005)
From city: 3 miles NW of CLARION, PA
Time zone: UTC -5 (UTC -4 during Daylight Saving Time)
Zip code: 16254

Airport Operations

Airport use: Open to the public
Activation date: 04/1974
Control tower: no
ARTCC: CLEVELAND CENTER
FSS: ALTOONA FLIGHT SERVICE STATION
NOTAMs facility: AOO (NOTAM-D service available)
Attendance: 0800-1600
UNATTENDED CHRISTMAS, EASTER & THANKSGIVING.
Wind indicator: lighted
Segmented circle: no
Lights: ACTVT MIRL RY 06/24, REIL RYS 06 & 24 AND PAPI RYS 06 & 24 - CTAF.
Beacon: white-green (lighted land airport)
Operates sunset to sunrise.
Landing fee: yes

Airport Communications

CTAF/UNICOM: 122.8
WX AWOS-3: 118.275 (814-227-2899)
  • APCH/DEP SVC PRVDD BY CLEVELAND ARTCC (ZOB) ON FREQS 126.725/291.65 (DUBOIS RCAG).

Nearby radio navigation aids

VOR radial/distance  VOR name  Freq  Var
CIPr015/4.8CLARION VOR/DME112.9006W
FKLr130/(22.6)FRANKLIN VOR109.6006W
TDTr191/29.3TIDIOUTE VORTAC117.6009W

Airport Services

Fuel available: 100LL JET-A+
SINGLE POINT REFUELING AVAILABLE UPON REQUEST.
Parking: hangars and tiedowns
Bottled oxygen: NONE
Bulk oxygen: HIGH

Runway Information

Runway 6/24

Dimensions: 5003 x 75 ft. / 1525 x 23 m
Surface: asphalt, in good condition
Weight bearing capacity: 
Single wheel: 15.0
Runway edge lights: medium intensity
RUNWAY 6  RUNWAY 24
Latitude: 41-13.203123N41-13.788593N
Longitude: 079-26.913500W079-26.145995W
Elevation: 1433.1 ft.1457.4 ft.
Traffic pattern: leftleft
Runway heading: 055 magnetic, 045 true235 magnetic, 225 true
Markings: nonprecision, in fair conditionnonprecision, in fair condition
Visual slope indicator: 2-light PAPI on left (3.00 degrees glide path)2-light PAPI on left (3.00 degrees glide path)
Runway end identifier lights: yesyes
Touchdown point: yes, no lightsyes, no lights
Obstructions: none35 ft. trees, 850 ft. from runway, 330 ft. left of centerline, 18:1 slope to clear

Airport Ownership and Management from official FAA records

Ownership: Publicly-owned
Owner: CLARION COUNTY ARPT AUTH
395 AIRPORT RD
SHIPPENVILLE, PA 16254
Phone 814-226-9993
Manager: WILLIAM MORRISON
395 AIRPORT ROAD
SHIPPENVILLE, PA 16254
Phone (814) 226-9993

Airport Operational Statistics

Aircraft based on the field: 16
Single engine airplanes: 13
Helicopters: 2
Ultralights: 1
    
Aircraft operations: avg 55/week *
55% local general aviation
44% transient general aviation
1% military
* for 12-month period ending 09 July 2019

Additional Remarks

FOR APCH/DEP SVCS CTC CLEVELAND ARTCC AT 440-774-0234.

Instrument Procedures

NOTE: All procedures below are presented as PDF files. If you need a reader for these files, you should download the free Adobe Reader.

NOT FOR NAVIGATION. Please procure official charts for flight.
FAA instrument procedures published for use from 02 January 2020 at 0901Z to 30 January 2020 at 0900Z.

 
IAPs - Instrument Approach Procedures
RNAV (GPS) RWY 06   download (207KB)
RNAV (GPS) RWY 24   download (175KB)
NOTE: Special Take-Off Minimums/Departure Procedures apply   download (149KB)

Other nearby airports with instrument procedures:

KFKL - Venango Regional Airport (21 nm NW)
KDUJ - Dubois Regional Airport (25 nm E)
6G1 - Titusville Airport (27 nm NW)
N35 - Punxsutawney Municipal Airport (28 nm SE)
6P7 - McVille Airport (30 nm S)
 
Loc | Ops | Rwys | IFR | FBO | Links
Com | Nav | Svcs | Stats | Notes
Area around KAXQ (Clarion County Airport)
 
Road maps at: MapQuest Bing Google
 
Aerial photo
WARNING: Photo may not be current or correct
Aerial photo of KAXQ (Clarion County Airport)
Photo by William Pixley
Photo taken 23-Aug-2016
looking east.

Do you have a better or more recent aerial photo of Clarion County Airport that you would like to share? If so, please send us your photo.

 
Sectional chart

 
Airport diagram
CAUTION: Diagram may not be current
Diagram of KAXQ (Clarion County Airport)
 
Airport distance calculator
Flying to Clarion County Airport? Find the distance to fly.

From to KAXQ

Sunrise and sunset
Times for 20-Jan-2020
 Local
(UTC-5)
 Zulu
(UTC)
Morning civil twilight07:1012:10
Sunrise07:4012:40
Sunset17:1822:18
Evening civil twilight17:4822:48

Current date and time
Zulu (UTC)  20-Jan-2020 12:48:55
Local (UTC-5)  20-Jan-2020 07:48:55
 
METAR
KFKL 
21nm NW 
201156Z AUTO 31004KT 9SM -SN CLR M12/M13 A3032 RMK AO2 SLP301 P0000 60000 T11171128 11100 21117 53023 FZRANO
KDUJ 
25nm E 
201239Z AUTO 31006KT 10SM FEW009 SCT013 M12/M15 A3029 RMK AO2 T11221150
KBTP 
36nm SW 
201156Z AUTO 29003KT 10SM OVC009 M10/M11 A3036 RMK AO2 SLP312 60000 T11001111 11094 21106 53022 FZRANO
KIDI 
40nm SE 
201235Z AUTO 30004KT 9SM BKN011 BKN016 OVC022 M09/M10 A3038 RMK A01
KPJC 
41nm SW 
201235Z AUTO 00000KT 10SM OVC011 M10/M11 A3041 RMK AO2
TAF
KFKL 
21nm NW 
201128Z 2012/2112 31006KT P6SM VCSH SCT030 FM201600 33006KT P6SM BKN035 FM210300 30004KT P6SM BKN025 FM210500 31004KT P6SM BKN015
KDUJ 
25nm E 
201128Z 2012/2112 30007KT P6SM VCSH BKN025 FM201500 33007KT P6SM BKN035 FM210100 31005KT P6SM SCT040 FM210600 31005KT P6SM BKN015
NOTAMs
Click for the latest NOTAMs
NOTAMs are issued by the DoD/FAA and will open in a separate window not controlled by AirNav.

 

 
 

FBO, Fuel Providers, and Aircraft Ground Support

  
 Business Name 
 
 Contact 
 
 Services / Description 
 
Fuel Prices
 
Comments
  
 Clarion County Airport
814-226-9993
[web site]
[email]
Airport management, Aviation fuel, Aircraft ground handling, Aircraft parking (ramp or tiedown), Hangars, Hangar leasing / sales, Passenger terminal and lounge, ...

More info about Clarion County Airport
EPIC
100LL Jet A
AS $4.94 $3.89 
 Updated 14-Jan-2020
 
   write
AS=Assisted/Self Service
Update Fuel Prices
 

Would you like to see your business listed on this page?

 If your business provides an interesting product or service to pilots, flight crews, aircraft, or users of the Clarion County Airport, you should consider listing it here.  To start the listing process, click on the button below
 
Add a business
 

Other Pages about Clarion County Airport

www.clarionairport.com
users.penn.com/~airport
 
Update a link
 
Copyright © AirNav, LLC. All rights reserved. Privacy Policy  Contact